sensor_id;sensor_type;location;lat;lon;timestamp;P1;durP1;ratioP1;P2;durP2;ratioP2
73938;SDS011;62291;47.554;8.504;2023-02-28T00:01:22;10.07;;;6.35;;
73938;SDS011;62291;47.554;8.504;2023-02-28T00:03:48;9.45;;;6.28;;
73938;SDS011;62291;47.554;8.504;2023-02-28T00:06:13;10.85;;;6.68;;
73938;SDS011;62291;47.554;8.504;2023-02-28T00:08:39;10.75;;;5.75;;
73938;SDS011;62291;47.554;8.504;2023-02-28T00:11:07;11.45;;;7.15;;
73938;SDS011;62291;47.554;8.504;2023-02-28T00:13:35;11.13;;;7.63;;
73938;SDS011;62291;47.554;8.504;2023-02-28T00:16:05;9.18;;;5.72;;
73938;SDS011;62291;47.554;8.504;2023-02-28T00:18:34;11.45;;;6.85;;
73938;SDS011;62291;47.554;8.504;2023-02-28T00:21:00;10.30;;;5.80;;
73938;SDS011;62291;47.554;8.504;2023-02-28T00:23:26;10.60;;;6.88;;
73938;SDS011;62291;47.554;8.504;2023-02-28T00:25:52;10.88;;;7.80;;
73938;SDS011;62291;47.554;8.504;2023-02-28T00:28:18;10.82;;;7.85;;
73938;SDS011;62291;47.554;8.504;2023-02-28T00:30:43;11.60;;;7.53;;
73938;SDS011;62291;47.554;8.504;2023-02-28T00:33:09;11.50;;;8.38;;
73938;SDS011;62291;47.554;8.504;2023-02-28T00:35:35;12.10;;;7.78;;
73938;SDS011;62291;47.554;8.504;2023-02-28T00:38:01;10.88;;;8.07;;
73938;SDS011;62291;47.554;8.504;2023-02-28T00:40:27;12.75;;;8.35;;
73938;SDS011;62291;47.554;8.504;2023-02-28T00:42:53;11.48;;;8.13;;
73938;SDS011;62291;47.554;8.504;2023-02-28T00:45:19;10.73;;;7.85;;
73938;SDS011;62291;47.554;8.504;2023-02-28T00:47:44;11.30;;;7.93;;
73938;SDS011;62291;47.554;8.504;2023-02-28T00:50:11;11.07;;;7.80;;
73938;SDS011;62291;47.554;8.504;2023-02-28T00:52:37;11.52;;;8.13;;
73938;SDS011;62291;47.554;8.504;2023-02-28T00:55:03;10.00;;;7.97;;
73938;SDS011;62291;47.554;8.504;2023-02-28T00:57:29;13.70;;;9.18;;
73938;SDS011;62291;47.554;8.504;2023-02-28T00:59:55;11.90;;;8.32;;
73938;SDS011;62291;47.554;8.504;2023-02-28T01:02:21;11.32;;;8.38;;
73938;SDS011;62291;47.554;8.504;2023-02-28T01:04:48;12.48;;;8.45;;
73938;SDS011;62291;47.554;8.504;2023-02-28T01:07:13;13.38;;;9.27;;
73938;SDS011;62291;47.554;8.504;2023-02-28T01:09:39;11.27;;;8.50;;
73938;SDS011;62291;47.554;8.504;2023-02-28T01:12:06;10.88;;;8.93;;
73938;SDS011;62291;47.554;8.504;2023-02-28T01:14:32;12.68;;;8.15;;
73938;SDS011;62291;47.554;8.504;2023-02-28T01:16:59;11.85;;;8.30;;
73938;SDS011;62291;47.554;8.504;2023-02-28T01:19:25;11.82;;;8.77;;
73938;SDS011;62291;47.554;8.504;2023-02-28T01:21:51;12.88;;;8.90;;
73938;SDS011;62291;47.554;8.504;2023-02-28T01:24:16;12.13;;;8.40;;
73938;SDS011;62291;47.554;8.504;2023-02-28T01:26:42;12.00;;;8.57;;
73938;SDS011;62291;47.554;8.504;2023-02-28T01:29:08;13.70;;;9.15;;
73938;SDS011;62291;47.554;8.504;2023-02-28T01:31:34;12.13;;;8.05;;
73938;SDS011;62291;47.554;8.504;2023-02-28T01:33:59;15.20;;;9.13;;
73938;SDS011;62291;47.554;8.504;2023-02-28T01:36:25;13.80;;;8.63;;
73938;SDS011;62291;47.554;8.504;2023-02-28T01:38:51;11.63;;;8.52;;
73938;SDS011;62291;47.554;8.504;2023-02-28T01:46:10;12.18;;;8.20;;
73938;SDS011;62291;47.554;8.504;2023-02-28T01:48:46;12.93;;;8.88;;
73938;SDS011;62291;47.554;8.504;2023-02-28T01:51:18;11.40;;;6.90;;
73938;SDS011;62291;47.554;8.504;2023-02-28T01:53:51;13.70;;;9.05;;
73938;SDS011;62291;47.554;8.504;2023-02-28T01:56:22;13.02;;;9.30;;
73938;SDS011;62291;47.554;8.504;2023-02-28T01:58:52;11.38;;;8.25;;
73938;SDS011;62291;47.554;8.504;2023-02-28T02:01:20;12.35;;;9.27;;
73938;SDS011;62291;47.554;8.504;2023-02-28T02:03:54;13.00;;;9.45;;
73938;SDS011;62291;47.554;8.504;2023-02-28T02:06:23;11.02;;;7.85;;
73938;SDS011;62291;47.554;8.504;2023-02-28T02:08:52;11.02;;;7.97;;
73938;SDS011;62291;47.554;8.504;2023-02-28T02:11:19;15.77;;;8.50;;
73938;SDS011;62291;47.554;8.504;2023-02-28T02:16:31;10.10;;;6.13;;
73938;SDS011;62291;47.554;8.504;2023-02-28T02:27:24;12.95;;;9.45;;
73938;SDS011;62291;47.554;8.504;2023-02-28T02:36:24;14.15;;;8.60;;
73938;SDS011;62291;47.554;8.504;2023-02-28T02:38:58;11.70;;;8.25;;
73938;SDS011;62291;47.554;8.504;2023-02-28T02:41:39;8.98;;;6.18;;
73938;SDS011;62291;47.554;8.504;2023-02-28T02:44:21;12.98;;;8.27;;
73938;SDS011;62291;47.554;8.504;2023-02-28T02:46:53;10.35;;;6.95;;
73938;SDS011;62291;47.554;8.504;2023-02-28T02:49:28;11.18;;;8.38;;
73938;SDS011;62291;47.554;8.504;2023-02-28T02:51:57;13.18;;;8.20;;
73938;SDS011;62291;47.554;8.504;2023-02-28T02:54:29;12.95;;;6.15;;
73938;SDS011;62291;47.554;8.504;2023-02-28T02:56:59;13.40;;;7.72;;
73938;SDS011;62291;47.554;8.504;2023-02-28T02:59:29;11.30;;;8.45;;
73938;SDS011;62291;47.554;8.504;2023-02-28T03:01:57;14.85;;;8.70;;
73938;SDS011;62291;47.554;8.504;2023-02-28T03:04:26;11.32;;;8.27;;
73938;SDS011;62291;47.554;8.504;2023-02-28T03:06:57;14.13;;;8.70;;
73938;SDS011;62291;47.554;8.504;2023-02-28T03:09:23;11.27;;;8.50;;
73938;SDS011;62291;47.554;8.504;2023-02-28T03:11:50;10.32;;;7.10;;
73938;SDS011;62291;47.554;8.504;2023-02-28T03:23:21;11.18;;;7.82;;
73938;SDS011;62291;47.554;8.504;2023-02-28T03:26:27;9.88;;;7.53;;
73938;SDS011;62291;47.554;8.504;2023-02-28T03:31:27;10.73;;;7.72;;
73938;SDS011;62291;47.554;8.504;2023-02-28T03:34:12;11.30;;;8.52;;
73938;SDS011;62291;47.554;8.504;2023-02-28T03:36:48;12.18;;;7.45;;
73938;SDS011;62291;47.554;8.504;2023-02-28T03:39:23;10.63;;;8.48;;
73938;SDS011;62291;47.554;8.504;2023-02-28T03:41:59;10.38;;;6.88;;
73938;SDS011;62291;47.554;8.504;2023-02-28T03:44:30;10.90;;;7.40;;
73938;SDS011;62291;47.554;8.504;2023-02-28T03:47:08;8.50;;;6.33;;
73938;SDS011;62291;47.554;8.504;2023-02-28T03:50:05;11.77;;;7.55;;
73938;SDS011;62291;47.554;8.504;2023-02-28T03:52:42;9.75;;;7.10;;
73938;SDS011;62291;47.554;8.504;2023-02-28T03:55:12;11.80;;;8.00;;
73938;SDS011;62291;47.554;8.504;2023-02-28T03:57:58;10.73;;;7.78;;
73938;SDS011;62291;47.554;8.504;2023-02-28T04:00:43;11.55;;;7.75;;
73938;SDS011;62291;47.554;8.504;2023-02-28T04:03:12;11.40;;;7.85;;
73938;SDS011;62291;47.554;8.504;2023-02-28T04:05:49;11.63;;;7.40;;
73938;SDS011;62291;47.554;8.504;2023-02-28T04:08:17;8.38;;;5.82;;
73938;SDS011;62291;47.554;8.504;2023-02-28T04:10:43;9.88;;;7.28;;
73938;SDS011;62291;47.554;8.504;2023-02-28T04:13:13;10.20;;;7.00;;
73938;SDS011;62291;47.554;8.504;2023-02-28T04:15:38;11.63;;;7.10;;
73938;SDS011;62291;47.554;8.504;2023-02-28T04:18:04;9.85;;;6.88;;
73938;SDS011;62291;47.554;8.504;2023-02-28T04:20:30;9.02;;;5.50;;
73938;SDS011;62291;47.554;8.504;2023-02-28T04:22:56;8.32;;;5.15;;
73938;SDS011;62291;47.554;8.504;2023-02-28T04:25:22;9.15;;;6.28;;
73938;SDS011;62291;47.554;8.504;2023-02-28T04:27:47;12.43;;;7.40;;
73938;SDS011;62291;47.554;8.504;2023-02-28T04:30:13;10.30;;;7.47;;
73938;SDS011;62291;47.554;8.504;2023-02-28T04:32:39;9.43;;;7.35;;
73938;SDS011;62291;47.554;8.504;2023-02-28T04:35:04;9.20;;;6.20;;
73938;SDS011;62291;47.554;8.504;2023-02-28T04:37:30;9.38;;;6.95;;
73938;SDS011;62291;47.554;8.504;2023-02-28T04:39:59;9.88;;;7.03;;
73938;SDS011;62291;47.554;8.504;2023-02-28T04:42:26;9.52;;;7.07;;
73938;SDS011;62291;47.554;8.504;2023-02-28T04:44:51;10.25;;;7.13;;
73938;SDS011;62291;47.554;8.504;2023-02-28T04:47:17;12.25;;;7.22;;
73938;SDS011;62291;47.554;8.504;2023-02-28T04:49:43;9.52;;;6.80;;
73938;SDS011;62291;47.554;8.504;2023-02-28T04:52:08;10.68;;;7.22;;
73938;SDS011;62291;47.554;8.504;2023-02-28T04:54:35;18.48;;;7.65;;
73938;SDS011;62291;47.554;8.504;2023-02-28T04:57:03;10.82;;;7.30;;
73938;SDS011;62291;47.554;8.504;2023-02-28T04:59:29;11.80;;;7.47;;
73938;SDS011;62291;47.554;8.504;2023-02-28T05:01:55;11.68;;;8.35;;
73938;SDS011;62291;47.554;8.504;2023-02-28T05:04:20;10.52;;;6.93;;
73938;SDS011;62291;47.554;8.504;2023-02-28T05:06:46;13.40;;;7.68;;
73938;SDS011;62291;47.554;8.504;2023-02-28T05:09:12;11.10;;;7.55;;
73938;SDS011;62291;47.554;8.504;2023-02-28T05:11:37;9.57;;;7.32;;
73938;SDS011;62291;47.554;8.504;2023-02-28T05:14:05;9.68;;;6.60;;
73938;SDS011;62291;47.554;8.504;2023-02-28T05:16:35;10.75;;;8.10;;
73938;SDS011;62291;47.554;8.504;2023-02-28T05:19:01;9.23;;;7.00;;
73938;SDS011;62291;47.554;8.504;2023-02-28T05:21:28;11.70;;;7.63;;
73938;SDS011;62291;47.554;8.504;2023-02-28T05:23:59;10.18;;;7.35;;
73938;SDS011;62291;47.554;8.504;2023-02-28T05:26:30;10.00;;;7.35;;
73938;SDS011;62291;47.554;8.504;2023-02-28T05:28:58;11.38;;;7.00;;
73938;SDS011;62291;47.554;8.504;2023-02-28T05:31:24;11.45;;;7.90;;
73938;SDS011;62291;47.554;8.504;2023-02-28T05:33:50;12.25;;;7.07;;
73938;SDS011;62291;47.554;8.504;2023-02-28T05:36:16;10.43;;;7.25;;
73938;SDS011;62291;47.554;8.504;2023-02-28T05:38:42;9.27;;;7.20;;
73938;SDS011;62291;47.554;8.504;2023-02-28T05:41:09;11.88;;;7.70;;
73938;SDS011;62291;47.554;8.504;2023-02-28T05:43:36;9.77;;;7.10;;
73938;SDS011;62291;47.554;8.504;2023-02-28T05:46:06;10.77;;;7.60;;
73938;SDS011;62291;47.554;8.504;2023-02-28T05:48:34;14.50;;;7.93;;
73938;SDS011;62291;47.554;8.504;2023-02-28T05:51:00;9.73;;;7.38;;
73938;SDS011;62291;47.554;8.504;2023-02-28T05:53:27;10.10;;;7.30;;
73938;SDS011;62291;47.554;8.504;2023-02-28T05:55:53;11.55;;;7.97;;
73938;SDS011;62291;47.554;8.504;2023-02-28T05:58:18;11.40;;;7.68;;
73938;SDS011;62291;47.554;8.504;2023-02-28T06:00:44;12.73;;;8.63;;
73938;SDS011;62291;47.554;8.504;2023-02-28T06:03:10;10.50;;;7.25;;
73938;SDS011;62291;47.554;8.504;2023-02-28T06:05:36;11.57;;;7.72;;
73938;SDS011;62291;47.554;8.504;2023-02-28T06:08:03;10.25;;;7.07;;
73938;SDS011;62291;47.554;8.504;2023-02-28T06:10:30;9.43;;;7.15;;
73938;SDS011;62291;47.554;8.504;2023-02-28T06:12:59;9.65;;;7.55;;
73938;SDS011;62291;47.554;8.504;2023-02-28T06:15:27;9.43;;;6.67;;
73938;SDS011;62291;47.554;8.504;2023-02-28T06:17:53;11.18;;;7.28;;
73938;SDS011;62291;47.554;8.504;2023-02-28T06:20:21;12.23;;;7.30;;
73938;SDS011;62291;47.554;8.504;2023-02-28T06:22:47;11.13;;;8.05;;
73938;SDS011;62291;47.554;8.504;2023-02-28T06:25:15;11.77;;;7.22;;
73938;SDS011;62291;47.554;8.504;2023-02-28T06:27:41;9.35;;;7.07;;
73938;SDS011;62291;47.554;8.504;2023-02-28T06:30:08;11.30;;;7.47;;
73938;SDS011;62291;47.554;8.504;2023-02-28T06:32:34;13.18;;;7.78;;
73938;SDS011;62291;47.554;8.504;2023-02-28T06:35:01;9.35;;;6.53;;
73938;SDS011;62291;47.554;8.504;2023-02-28T06:37:27;12.43;;;8.25;;
73938;SDS011;62291;47.554;8.504;2023-02-28T06:39:53;12.93;;;7.88;;
73938;SDS011;62291;47.554;8.504;2023-02-28T06:42:21;10.40;;;7.80;;
73938;SDS011;62291;47.554;8.504;2023-02-28T06:44:56;10.38;;;7.75;;
73938;SDS011;62291;47.554;8.504;2023-02-28T06:47:22;12.50;;;7.43;;
73938;SDS011;62291;47.554;8.504;2023-02-28T06:49:48;12.05;;;7.00;;
73938;SDS011;62291;47.554;8.504;2023-02-28T06:52:14;11.68;;;7.85;;
73938;SDS011;62291;47.554;8.504;2023-02-28T06:54:41;10.32;;;7.30;;
73938;SDS011;62291;47.554;8.504;2023-02-28T06:57:07;13.98;;;7.93;;
73938;SDS011;62291;47.554;8.504;2023-02-28T06:59:33;11.90;;;7.53;;
73938;SDS011;62291;47.554;8.504;2023-02-28T07:02:00;11.93;;;7.40;;
73938;SDS011;62291;47.554;8.504;2023-02-28T07:04:27;11.57;;;8.23;;
73938;SDS011;62291;47.554;8.504;2023-02-28T07:06:54;11.88;;;7.68;;
73938;SDS011;62291;47.554;8.504;2023-02-28T07:09:21;10.52;;;7.45;;
73938;SDS011;62291;47.554;8.504;2023-02-28T07:11:47;11.05;;;7.60;;
73938;SDS011;62291;47.554;8.504;2023-02-28T07:14:13;12.02;;;8.23;;
73938;SDS011;62291;47.554;8.504;2023-02-28T07:16:40;12.18;;;8.20;;
73938;SDS011;62291;47.554;8.504;2023-02-28T07:19:06;12.13;;;7.97;;
73938;SDS011;62291;47.554;8.504;2023-02-28T07:21:32;11.55;;;8.15;;
73938;SDS011;62291;47.554;8.504;2023-02-28T07:23:57;14.48;;;8.50;;
73938;SDS011;62291;47.554;8.504;2023-02-28T07:26:26;11.75;;;8.65;;
73938;SDS011;62291;47.554;8.504;2023-02-28T07:28:53;12.00;;;8.88;;
73938;SDS011;62291;47.554;8.504;2023-02-28T07:31:19;10.18;;;7.30;;
73938;SDS011;62291;47.554;8.504;2023-02-28T07:33:46;13.45;;;8.85;;
73938;SDS011;62291;47.554;8.504;2023-02-28T07:36:14;12.25;;;8.65;;
73938;SDS011;62291;47.554;8.504;2023-02-28T07:38:44;13.90;;;8.45;;
73938;SDS011;62291;47.554;8.504;2023-02-28T07:41:14;12.77;;;9.48;;
73938;SDS011;62291;47.554;8.504;2023-02-28T07:43:40;12.75;;;9.10;;
73938;SDS011;62291;47.554;8.504;2023-02-28T07:46:10;12.52;;;9.98;;
73938;SDS011;62291;47.554;8.504;2023-02-28T07:48:39;15.00;;;9.00;;
73938;SDS011;62291;47.554;8.504;2023-02-28T07:51:05;13.73;;;10.23;;
73938;SDS011;62291;47.554;8.504;2023-02-28T07:53:31;10.15;;;5.78;;
73938;SDS011;62291;47.554;8.504;2023-02-28T07:55:58;11.88;;;8.10;;
73938;SDS011;62291;47.554;8.504;2023-02-28T07:58:26;11.55;;;7.55;;
73938;SDS011;62291;47.554;8.504;2023-02-28T08:00:52;13.38;;;9.90;;
73938;SDS011;62291;47.554;8.504;2023-02-28T08:03:19;13.68;;;9.73;;
73938;SDS011;62291;47.554;8.504;2023-02-28T08:05:45;16.65;;;11.05;;
73938;SDS011;62291;47.554;8.504;2023-02-28T08:08:11;13.77;;;10.15;;
73938;SDS011;62291;47.554;8.504;2023-02-28T08:10:37;12.60;;;7.32;;
73938;SDS011;62291;47.554;8.504;2023-02-28T08:13:03;16.02;;;10.40;;
73938;SDS011;62291;47.554;8.504;2023-02-28T08:15:28;14.68;;;9.00;;
73938;SDS011;62291;47.554;8.504;2023-02-28T08:17:54;14.90;;;10.02;;
73938;SDS011;62291;47.554;8.504;2023-02-28T08:20:21;14.68;;;8.52;;
73938;SDS011;62291;47.554;8.504;2023-02-28T08:22:47;10.65;;;7.57;;
73938;SDS011;62291;47.554;8.504;2023-02-28T08:25:13;13.45;;;8.40;;
73938;SDS011;62291;47.554;8.504;2023-02-28T08:27:39;14.00;;;10.10;;
73938;SDS011;62291;47.554;8.504;2023-02-28T08:30:05;11.55;;;7.97;;
73938;SDS011;62291;47.554;8.504;2023-02-28T08:32:34;15.45;;;10.07;;
73938;SDS011;62291;47.554;8.504;2023-02-28T08:35:00;12.32;;;8.18;;
73938;SDS011;62291;47.554;8.504;2023-02-28T08:37:26;14.88;;;8.40;;
73938;SDS011;62291;47.554;8.504;2023-02-28T08:39:52;14.93;;;10.25;;
73938;SDS011;62291;47.554;8.504;2023-02-28T08:42:18;15.10;;;10.68;;
73938;SDS011;62291;47.554;8.504;2023-02-28T08:44:43;17.65;;;10.82;;
73938;SDS011;62291;47.554;8.504;2023-02-28T08:47:09;11.20;;;6.15;;
73938;SDS011;62291;47.554;8.504;2023-02-28T08:49:35;18.15;;;9.95;;
73938;SDS011;62291;47.554;8.504;2023-02-28T08:52:02;15.80;;;11.00;;
73938;SDS011;62291;47.554;8.504;2023-02-28T08:54:28;16.85;;;10.45;;
73938;SDS011;62291;47.554;8.504;2023-02-28T08:56:56;16.85;;;10.57;;
73938;SDS011;62291;47.554;8.504;2023-02-28T08:59:22;15.57;;;11.82;;
73938;SDS011;62291;47.554;8.504;2023-02-28T09:01:48;13.63;;;10.30;;
73938;SDS011;62291;47.554;8.504;2023-02-28T09:04:14;15.68;;;11.60;;
73938;SDS011;62291;47.554;8.504;2023-02-28T09:06:39;16.98;;;11.90;;
73938;SDS011;62291;47.554;8.504;2023-02-28T09:09:05;15.00;;;8.82;;
73938;SDS011;62291;47.554;8.504;2023-02-28T09:11:32;17.38;;;11.70;;
73938;SDS011;62291;47.554;8.504;2023-02-28T09:13:59;13.40;;;8.57;;
73938;SDS011;62291;47.554;8.504;2023-02-28T09:16:26;14.38;;;9.98;;
73938;SDS011;62291;47.554;8.504;2023-02-28T09:18:51;14.75;;;11.00;;
73938;SDS011;62291;47.554;8.504;2023-02-28T09:21:18;14.43;;;10.57;;
73938;SDS011;62291;47.554;8.504;2023-02-28T09:23:44;12.90;;;9.23;;
73938;SDS011;62291;47.554;8.504;2023-02-28T09:26:15;15.95;;;10.30;;
73938;SDS011;62291;47.554;8.504;2023-02-28T09:28:47;13.90;;;11.32;;
73938;SDS011;62291;47.554;8.504;2023-02-28T09:31:14;14.98;;;10.93;;
73938;SDS011;62291;47.554;8.504;2023-02-28T09:33:45;16.35;;;10.60;;
73938;SDS011;62291;47.554;8.504;2023-02-28T09:36:15;13.40;;;9.82;;
73938;SDS011;62291;47.554;8.504;2023-02-28T09:38:41;13.85;;;10.98;;
73938;SDS011;62291;47.554;8.504;2023-02-28T09:41:23;17.40;;;11.10;;
73938;SDS011;62291;47.554;8.504;2023-02-28T09:43:56;9.82;;;6.75;;
73938;SDS011;62291;47.554;8.504;2023-02-28T09:46:29;14.27;;;9.38;;
73938;SDS011;62291;47.554;8.504;2023-02-28T09:49:14;15.48;;;10.85;;
73938;SDS011;62291;47.554;8.504;2023-02-28T09:51:48;15.48;;;10.70;;
73938;SDS011;62291;47.554;8.504;2023-02-28T09:54:17;16.67;;;11.90;;
73938;SDS011;62291;47.554;8.504;2023-02-28T09:57:06;13.75;;;10.10;;
73938;SDS011;62291;47.554;8.504;2023-02-28T09:59:39;14.60;;;10.48;;
73938;SDS011;62291;47.554;8.504;2023-02-28T10:06:00;16.23;;;11.40;;
73938;SDS011;62291;47.554;8.504;2023-02-28T10:08:32;17.58;;;12.18;;
73938;SDS011;62291;47.554;8.504;2023-02-28T10:11:09;17.95;;;10.82;;
73938;SDS011;62291;47.554;8.504;2023-02-28T10:16:40;15.52;;;11.45;;
73938;SDS011;62291;47.554;8.504;2023-02-28T10:27:00;15.88;;;11.80;;
73938;SDS011;62291;47.554;8.504;2023-02-28T10:31:58;10.95;;;6.65;;
73938;SDS011;62291;47.554;8.504;2023-02-28T10:34:26;17.45;;;11.20;;
73938;SDS011;62291;47.554;8.504;2023-02-28T10:36:51;15.73;;;10.57;;
73938;SDS011;62291;47.554;8.504;2023-02-28T10:45:09;16.73;;;11.75;;
73938;SDS011;62291;47.554;8.504;2023-02-28T10:47:49;15.68;;;11.00;;
73938;SDS011;62291;47.554;8.504;2023-02-28T10:51:06;15.65;;;9.43;;
73938;SDS011;62291;47.554;8.504;2023-02-28T10:55:56;9.52;;;5.93;;
73938;SDS011;62291;47.554;8.504;2023-02-28T10:58:25;15.27;;;9.38;;
73938;SDS011;62291;47.554;8.504;2023-02-28T11:01:13;14.95;;;10.15;;
73938;SDS011;62291;47.554;8.504;2023-02-28T11:04:00;16.30;;;11.20;;
73938;SDS011;62291;47.554;8.504;2023-02-28T11:06:28;16.13;;;11.43;;
73938;SDS011;62291;47.554;8.504;2023-02-28T11:08:58;16.00;;;10.40;;
73938;SDS011;62291;47.554;8.504;2023-02-28T11:11:26;13.93;;;10.77;;
73938;SDS011;62291;47.554;8.504;2023-02-28T11:14:03;16.08;;;11.45;;
73938;SDS011;62291;47.554;8.504;2023-02-28T11:16:34;17.88;;;13.05;;
73938;SDS011;62291;47.554;8.504;2023-02-28T11:21:35;15.45;;;9.85;;
73938;SDS011;62291;47.554;8.504;2023-02-28T11:26:49;19.88;;;11.73;;
73938;SDS011;62291;47.554;8.504;2023-02-28T11:29:20;13.90;;;8.73;;
73938;SDS011;62291;47.554;8.504;2023-02-28T11:34:34;16.67;;;12.05;;
73938;SDS011;62291;47.554;8.504;2023-02-28T11:37:02;14.68;;;10.60;;
73938;SDS011;62291;47.554;8.504;2023-02-28T11:39:32;17.83;;;11.88;;
73938;SDS011;62291;47.554;8.504;2023-02-28T11:42:09;17.45;;;9.88;;
73938;SDS011;62291;47.554;8.504;2023-02-28T11:44:47;17.70;;;11.80;;
73938;SDS011;62291;47.554;8.504;2023-02-28T11:47:34;17.77;;;10.48;;
73938;SDS011;62291;47.554;8.504;2023-02-28T11:50:13;18.00;;;12.80;;
73938;SDS011;62291;47.554;8.504;2023-02-28T11:58:41;15.55;;;11.35;;
73938;SDS011;62291;47.554;8.504;2023-02-28T12:01:28;18.38;;;12.65;;
73938;SDS011;62291;47.554;8.504;2023-02-28T12:07:09;19.35;;;10.65;;
73938;SDS011;62291;47.554;8.504;2023-02-28T12:09:57;19.45;;;13.50;;
73938;SDS011;62291;47.554;8.504;2023-02-28T12:12:37;18.38;;;11.27;;
73938;SDS011;62291;47.554;8.504;2023-02-28T12:20:55;18.13;;;13.07;;
73938;SDS011;62291;47.554;8.504;2023-02-28T12:29:21;16.40;;;12.48;;
73938;SDS011;62291;47.554;8.504;2023-02-28T12:31:53;15.70;;;10.95;;
73938;SDS011;62291;47.554;8.504;2023-02-28T12:34:28;18.88;;;13.35;;
73938;SDS011;62291;47.554;8.504;2023-02-28T12:37:08;18.50;;;12.13;;
73938;SDS011;62291;47.554;8.504;2023-02-28T12:39:44;18.27;;;13.18;;
73938;SDS011;62291;47.554;8.504;2023-02-28T12:42:26;19.92;;;14.10;;
73938;SDS011;62291;47.554;8.504;2023-02-28T12:44:57;17.73;;;13.15;;
73938;SDS011;62291;47.554;8.504;2023-02-28T12:47:26;17.63;;;10.90;;
73938;SDS011;62291;47.554;8.504;2023-02-28T12:49:59;17.58;;;13.52;;
73938;SDS011;62291;47.554;8.504;2023-02-28T12:52:32;18.15;;;11.88;;
73938;SDS011;62291;47.554;8.504;2023-02-28T12:55:00;20.80;;;13.25;;
73938;SDS011;62291;47.554;8.504;2023-02-28T12:57:38;14.98;;;10.18;;
73938;SDS011;62291;47.554;8.504;2023-02-28T13:00:19;18.58;;;13.95;;
73938;SDS011;62291;47.554;8.504;2023-02-28T13:08:50;18.40;;;13.38;;
73938;SDS011;62291;47.554;8.504;2023-02-28T13:11:32;20.15;;;14.35;;
73938;SDS011;62291;47.554;8.504;2023-02-28T13:14:06;18.75;;;13.50;;
73938;SDS011;62291;47.554;8.504;2023-02-28T13:19:43;18.95;;;13.30;;
73938;SDS011;62291;47.554;8.504;2023-02-28T13:22:19;18.00;;;13.02;;
73938;SDS011;62291;47.554;8.504;2023-02-28T13:24:49;18.45;;;13.15;;
73938;SDS011;62291;47.554;8.504;2023-02-28T13:27:24;20.15;;;13.85;;
73938;SDS011;62291;47.554;8.504;2023-02-28T13:35:43;21.23;;;12.27;;
73938;SDS011;62291;47.554;8.504;2023-02-28T13:38:17;19.98;;;13.65;;
73938;SDS011;62291;47.554;8.504;2023-02-28T13:40:48;19.77;;;13.90;;
73938;SDS011;62291;47.554;8.504;2023-02-28T13:43:16;21.40;;;14.95;;
73938;SDS011;62291;47.554;8.504;2023-02-28T13:46:03;21.52;;;13.63;;
73938;SDS011;62291;47.554;8.504;2023-02-28T13:48:36;18.00;;;12.40;;
73938;SDS011;62291;47.554;8.504;2023-02-28T13:51:25;20.67;;;14.20;;
73938;SDS011;62291;47.554;8.504;2023-02-28T13:54:21;21.67;;;13.82;;
73938;SDS011;62291;47.554;8.504;2023-02-28T13:59:42;21.33;;;14.38;;
73938;SDS011;62291;47.554;8.504;2023-02-28T14:02:52;20.23;;;15.07;;
73938;SDS011;62291;47.554;8.504;2023-02-28T14:05:28;18.42;;;13.48;;
73938;SDS011;62291;47.554;8.504;2023-02-28T14:07:57;21.35;;;13.63;;
73938;SDS011;62291;47.554;8.504;2023-02-28T14:10:27;21.15;;;15.70;;
73938;SDS011;62291;47.554;8.504;2023-02-28T14:13:03;22.77;;;15.13;;
73938;SDS011;62291;47.554;8.504;2023-02-28T14:18:23;19.70;;;15.13;;
73938;SDS011;62291;47.554;8.504;2023-02-28T14:20:52;17.83;;;13.73;;
73938;SDS011;62291;47.554;8.504;2023-02-28T14:26:33;21.58;;;14.18;;
73938;SDS011;62291;47.554;8.504;2023-02-28T14:35:35;20.48;;;15.27;;
73938;SDS011;62291;47.554;8.504;2023-02-28T14:38:13;20.48;;;15.30;;
73938;SDS011;62291;47.554;8.504;2023-02-28T14:40:43;23.27;;;15.45;;
73938;SDS011;62291;47.554;8.504;2023-02-28T14:43:21;21.90;;;15.50;;
73938;SDS011;62291;47.554;8.504;2023-02-28T14:45:52;22.15;;;15.75;;
73938;SDS011;62291;47.554;8.504;2023-02-28T14:48:22;24.75;;;16.10;;
73938;SDS011;62291;47.554;8.504;2023-02-28T14:50:51;21.90;;;15.30;;
73938;SDS011;62291;47.554;8.504;2023-02-28T14:53:22;23.38;;;16.40;;
73938;SDS011;62291;47.554;8.504;2023-02-28T14:55:51;24.52;;;15.50;;
73938;SDS011;62291;47.554;8.504;2023-02-28T15:00:50;20.55;;;14.90;;
73938;SDS011;62291;47.554;8.504;2023-02-28T15:03:51;23.13;;;16.05;;
73938;SDS011;62291;47.554;8.504;2023-02-28T15:06:13;21.85;;;16.15;;
73938;SDS011;62291;47.554;8.504;2023-02-28T15:08:42;21.85;;;15.13;;
73938;SDS011;62291;47.554;8.504;2023-02-28T15:11:16;21.45;;;15.65;;
73938;SDS011;62291;47.554;8.504;2023-02-28T15:13:50;18.55;;;10.70;;
73938;SDS011;62291;47.554;8.504;2023-02-28T15:18:59;15.18;;;7.95;;
73938;SDS011;62291;47.554;8.504;2023-02-28T15:21:27;21.70;;;12.52;;
73938;SDS011;62291;47.554;8.504;2023-02-28T15:24:04;21.52;;;13.57;;
73938;SDS011;62291;47.554;8.504;2023-02-28T15:26:49;22.63;;;13.77;;
73938;SDS011;62291;47.554;8.504;2023-02-28T15:29:20;21.80;;;14.13;;
73938;SDS011;62291;47.554;8.504;2023-02-28T15:31:55;20.17;;;13.50;;
73938;SDS011;62291;47.554;8.504;2023-02-28T15:34:42;24.05;;;15.98;;
73938;SDS011;62291;47.554;8.504;2023-02-28T15:43:23;20.27;;;12.13;;
73938;SDS011;62291;47.554;8.504;2023-02-28T15:53:59;22.75;;;16.73;;
73938;SDS011;62291;47.554;8.504;2023-02-28T15:56:46;23.88;;;17.65;;
73938;SDS011;62291;47.554;8.504;2023-02-28T15:59:26;24.20;;;17.70;;
73938;SDS011;62291;47.554;8.504;2023-02-28T16:04:35;25.02;;;17.67;;
73938;SDS011;62291;47.554;8.504;2023-02-28T16:07:02;22.75;;;14.20;;
73938;SDS011;62291;47.554;8.504;2023-02-28T16:09:30;24.08;;;16.75;;
73938;SDS011;62291;47.554;8.504;2023-02-28T16:11:56;24.27;;;17.10;;
73938;SDS011;62291;47.554;8.504;2023-02-28T16:14:29;24.02;;;17.13;;
73938;SDS011;62291;47.554;8.504;2023-02-28T16:17:05;25.55;;;18.35;;
73938;SDS011;62291;47.554;8.504;2023-02-28T16:19:36;26.73;;;17.65;;
73938;SDS011;62291;47.554;8.504;2023-02-28T16:22:01;25.05;;;18.00;;
73938;SDS011;62291;47.554;8.504;2023-02-28T16:24:27;24.42;;;13.60;;
73938;SDS011;62291;47.554;8.504;2023-02-28T16:26:53;29.00;;;18.15;;
73938;SDS011;62291;47.554;8.504;2023-02-28T16:29:26;25.35;;;18.33;;
73938;SDS011;62291;47.554;8.504;2023-02-28T16:31:56;28.17;;;17.50;;
73938;SDS011;62291;47.554;8.504;2023-02-28T16:34:22;26.02;;;18.33;;
73938;SDS011;62291;47.554;8.504;2023-02-28T16:36:50;25.17;;;17.88;;
73938;SDS011;62291;47.554;8.504;2023-02-28T16:39:16;26.67;;;18.05;;
73938;SDS011;62291;47.554;8.504;2023-02-28T16:41:43;27.52;;;18.50;;
73938;SDS011;62291;47.554;8.504;2023-02-28T16:44:14;25.92;;;17.67;;
73938;SDS011;62291;47.554;8.504;2023-02-28T16:46:52;27.70;;;17.25;;
73938;SDS011;62291;47.554;8.504;2023-02-28T16:49:18;27.38;;;18.33;;
73938;SDS011;62291;47.554;8.504;2023-02-28T16:51:44;28.33;;;19.95;;
73938;SDS011;62291;47.554;8.504;2023-02-28T16:54:09;26.25;;;17.63;;
73938;SDS011;62291;47.554;8.504;2023-02-28T16:56:35;25.73;;;17.88;;
73938;SDS011;62291;47.554;8.504;2023-02-28T16:59:03;29.80;;;19.70;;
73938;SDS011;62291;47.554;8.504;2023-02-28T17:01:29;31.08;;;18.65;;
73938;SDS011;62291;47.554;8.504;2023-02-28T17:03:55;30.80;;;18.48;;
73938;SDS011;62291;47.554;8.504;2023-02-28T17:06:25;26.92;;;19.17;;
73938;SDS011;62291;47.554;8.504;2023-02-28T17:08:53;31.25;;;20.10;;